Lidgerwood, ND

5:40 AM CDT on September 23, 2014 (GMT -0500)
Open Plains ND | Change Station
CLOSE
Current Station
Personal Weather Station
Location: Wyndmere, ND
Elevation: 1056 ft
Nearby Weather Stations

Elev 1056 ft 46.25 °N, 97.12 °W | Updated 2 minutes ago

Clear
Clear
50.7 °F
Feels Like 50.7 °F
N
0.0
Wind Variable Wind from NW

Today
High -- | Low -- °F
--% Chance of Precip.
Yesterday
High -- | Low -- °F
Precip. -- in
7:16 AM 7:24 PM
Waning Crescent, 1% visible
Pressure 30.03 in
Visibility 10.0 miles
Clouds Mostly Cloudy 6500 ft
Mostly Cloudy 8000 ft
Mostly Cloudy 11000 ft
Dew Point 50 °F
Humidity 97%
Rainfall 0.00 in
Snow Depth Not available.
UV 0 out of 12
Pollen 3.40 out of 12
Air Quality Not available.
Flu Activity Not available.
METAR KGWR 231035Z AUTO 13006KT 10SM BKN065 BKN080 BKN110 14/12 A3003 RMK A01 P000

More Conditions Fewer Conditions

Pressure 30.03 in
Visibility 10.0 miles
Clouds Mostly Cloudy 6500 ft
Mostly Cloudy 8000 ft
Mostly Cloudy 11000 ft
Dew Point 50 °F
Humidity 97%
Rainfall 0.00 in
Snow Depth Not available.
UV 0 out of 12
Pollen 3.40 out of 12
Air Quality Not available.
Flu Activity Not available.
METAR KGWR 231035Z AUTO 13006KT 10SM BKN065 BKN080 BKN110 14/12 A3003 RMK A01 P000

More Conditions Fewer Conditions

10-Day Weather Forecast

Almanac

Astronomy

Sep. 23, 2014 Rise Set
Actual Time 7:16 AM CDT 7:24 PM CDT
Civil Twilight 6:46 AM CDT 7:53 PM CDT
Nautical Twilight 6:11 AM CDT 8:28 PM CDT
Astronomical Twilight 5:35 AM CDT 9:04 PM CDT
Moon 6:41 AM CDT 7:02 PM CDT
Length of Visible Light 13h 06m
Length of Day
12h 07m
Tomorrow will be 3m 14s shorter.
Waning Crescent, 1% of the Moon is Illuminated
Today
Waning Crescent
Sep 24
New
Oct 1
First Quarter
Oct 8
Full
Oct 15
Last Quarter

Today's Extremes

State Highs State Lows

Community

WunderPhotos

Upload Photos

1,755,645 photos uploaded!

Nearby

Snow Depth

Station Depth Elevation
No new snow has been reported.

Earthquake Activity

City Distance Mag. Time & Date
No recent earthquake activity has been reported nearby.
Minimum magnitude displayed is 2.5.

Coastal Water Temperatures

Place Temperature
No Stations Reporting

Nearby Weather Stations